sensor_id;sensor_type;location;lat;lon;timestamp;pressure;altitude;pressure_sealevel;temperature;humidity
14383;BME280;7275;50.328;8.720;2023-04-05T00:02:05;100491.13;;;9.10;28.01
14383;BME280;7275;50.328;8.720;2023-04-05T00:04:36;100488.53;;;9.09;28.15
14383;BME280;7275;50.328;8.720;2023-04-05T00:07:07;100492.06;;;9.06;28.36
14383;BME280;7275;50.328;8.720;2023-04-05T00:09:37;100487.72;;;9.05;28.09
14383;BME280;7275;50.328;8.720;2023-04-05T00:12:05;100487.75;;;9.02;27.98
14383;BME280;7275;50.328;8.720;2023-04-05T00:14:34;100486.88;;;9.02;28.25
14383;BME280;7275;50.328;8.720;2023-04-05T00:17:01;100488.63;;;9.01;28.42
14383;BME280;7275;50.328;8.720;2023-04-05T00:19:29;100489.56;;;9.00;nan
14383;BME280;7275;50.328;8.720;2023-04-05T00:21:59;100481.72;;;8.96;28.15
14383;BME280;7275;50.328;8.720;2023-04-05T00:24:26;100482.63;;;8.93;28.38
14383;BME280;7275;50.328;8.720;2023-04-05T00:26:54;100487.06;;;8.91;28.44
14383;BME280;7275;50.328;8.720;2023-04-05T00:29:22;100486.22;;;8.91;28.36
14383;BME280;7275;50.328;8.720;2023-04-05T00:31:51;100485.38;;;8.89;28.44
14383;BME280;7275;50.328;8.720;2023-04-05T00:34:18;100487.19;;;8.85;28.46
14383;BME280;7275;50.328;8.720;2023-04-05T00:36:46;100484.63;;;8.80;28.44
14383;BME280;7275;50.328;8.720;2023-04-05T00:39:13;100482.13;;;8.73;28.66
14383;BME280;7275;50.328;8.720;2023-04-05T00:41:41;100482.22;;;8.68;28.73
14383;BME280;7275;50.328;8.720;2023-04-05T00:44:12;100487.47;;;8.68;28.69
14383;BME280;7275;50.328;8.720;2023-04-05T00:46:40;100472.63;;;8.64;28.65
14383;BME280;7275;50.328;8.720;2023-04-05T00:49:09;100482.34;;;8.61;28.75
14383;BME280;7275;50.328;8.720;2023-04-05T00:51:37;100477.16;;;8.56;28.72
14383;BME280;7275;50.328;8.720;2023-04-05T00:54:04;100482.50;;;8.52;28.80
14383;BME280;7275;50.328;8.720;2023-04-05T00:56:32;100474.66;;;8.49;28.98
14383;BME280;7275;50.328;8.720;2023-04-05T00:59:00;100472.97;;;8.43;28.84
14383;BME280;7275;50.328;8.720;2023-04-05T01:01:28;100466.94;;;8.38;28.83
14383;BME280;7275;50.328;8.720;2023-04-05T01:03:58;100462.59;;;8.33;28.99
14383;BME280;7275;50.328;8.720;2023-04-05T01:06:43;100464.47;;;8.28;29.04
14383;BME280;7275;50.328;8.720;2023-04-05T01:09:24;100460.97;;;8.23;29.13
14383;BME280;7275;50.328;8.720;2023-04-05T01:11:56;100457.50;;;8.21;28.95
14383;BME280;7275;50.328;8.720;2023-04-05T01:14:25;100454.06;;;8.16;29.13
14383;BME280;7275;50.328;8.720;2023-04-05T01:16:52;100455.88;;;8.12;29.16
14383;BME280;7275;50.328;8.720;2023-04-05T01:19:26;100452.44;;;8.08;29.18
14383;BME280;7275;50.328;8.720;2023-04-05T01:22:13;100452.50;;;8.04;29.28
14383;BME280;7275;50.328;8.720;2023-04-05T01:25:05;100447.31;;;7.98;29.41
14383;BME280;7275;50.328;8.720;2023-04-05T01:28:01;100455.31;;;7.92;29.37
14383;BME280;7275;50.328;8.720;2023-04-05T01:30:42;100443.09;;;7.86;29.16
14383;BME280;7275;50.328;8.720;2023-04-05T01:33:13;100448.41;;;7.83;29.11
14383;BME280;7275;50.328;8.720;2023-04-05T01:35:50;100454.66;;;7.78;29.50
14383;BME280;7275;50.328;8.720;2023-04-05T01:38:21;100453.81;;;7.73;29.35
14383;BME280;7275;50.328;8.720;2023-04-05T01:40:51;100452.13;;;7.69;29.55
14383;BME280;7275;50.328;8.720;2023-04-05T01:43:19;100451.28;;;7.67;29.51
14383;BME280;7275;50.328;8.720;2023-04-05T01:45:47;100453.06;;;7.65;29.71
14383;BME280;7275;50.328;8.720;2023-04-05T01:48:15;100444.31;;;7.63;29.57
14383;BME280;7275;50.328;8.720;2023-04-05T01:50:43;100451.31;;;7.64;29.68
14383;BME280;7275;50.328;8.720;2023-04-05T01:53:11;100448.69;;;7.64;29.75
14383;BME280;7275;50.328;8.720;2023-04-05T01:55:38;100444.31;;;7.64;29.58
14383;BME280;7275;50.328;8.720;2023-04-05T01:58:06;100438.16;;;7.64;29.67
14383;BME280;7275;50.328;8.720;2023-04-05T02:00:34;100436.44;;;7.63;29.53
14383;BME280;7275;50.328;8.720;2023-04-05T02:03:03;100439.94;;;7.62;29.49
14383;BME280;7275;50.328;8.720;2023-04-05T02:05:30;100436.47;;;7.61;29.74
14383;BME280;7275;50.328;8.720;2023-04-05T02:07:58;100437.38;;;7.59;29.89
14383;BME280;7275;50.328;8.720;2023-04-05T02:10:25;100437.38;;;7.57;29.58
14383;BME280;7275;50.328;8.720;2023-04-05T02:12:53;100442.63;;;7.57;29.94
14383;BME280;7275;50.328;8.720;2023-04-05T02:15:20;100441.78;;;7.55;29.54
14383;BME280;7275;50.328;8.720;2023-04-05T02:17:48;100434.81;;;7.51;29.97
14383;BME280;7275;50.328;8.720;2023-04-05T02:20:20;100439.22;;;7.49;29.94
14383;BME280;7275;50.328;8.720;2023-04-05T02:22:47;100429.66;;;7.47;29.95
14383;BME280;7275;50.328;8.720;2023-04-05T02:25:17;100425.28;;;7.43;29.98
14383;BME280;7275;50.328;8.720;2023-04-05T02:27:44;100428.81;;;7.42;30.14
14383;BME280;7275;50.328;8.720;2023-04-05T02:30:12;100429.72;;;7.39;30.44
14383;BME280;7275;50.328;8.720;2023-04-05T02:32:40;100432.34;;;7.39;30.00
14383;BME280;7275;50.328;8.720;2023-04-05T02:35:08;100432.38;;;7.38;29.70
14383;BME280;7275;50.328;8.720;2023-04-05T02:37:38;100427.16;;;7.35;29.84
14383;BME280;7275;50.328;8.720;2023-04-05T02:40:11;100432.50;;;7.30;29.78
14383;BME280;7275;50.328;8.720;2023-04-05T02:42:40;100430.75;;;7.26;30.01
14383;BME280;7275;50.328;8.720;2023-04-05T02:45:08;100443.06;;;7.24;29.88
14383;BME280;7275;50.328;8.720;2023-04-05T02:47:36;100444.84;;;7.20;30.02
14383;BME280;7275;50.328;8.720;2023-04-05T02:50:04;100446.63;;;7.18;30.16
14383;BME280;7275;50.328;8.720;2023-04-05T02:52:32;100448.44;;;7.15;30.14
14383;BME280;7275;50.328;8.720;2023-04-05T02:55:04;100442.31;;;7.11;30.09
14383;BME280;7275;50.328;8.720;2023-04-05T02:57:32;100440.59;;;7.10;30.49
14383;BME280;7275;50.328;8.720;2023-04-05T02:59:59;100436.25;;;7.08;30.31
14383;BME280;7275;50.328;8.720;2023-04-05T03:02:27;100433.66;;;7.06;30.41
14383;BME280;7275;50.328;8.720;2023-04-05T03:04:54;100428.41;;;7.05;30.56
14383;BME280;7275;50.328;8.720;2023-04-05T03:07:22;100429.25;;;7.05;30.38
14383;BME280;7275;50.328;8.720;2023-04-05T03:09:51;100427.50;;;7.06;30.40
14383;BME280;7275;50.328;8.720;2023-04-05T03:12:20;100425.78;;;7.05;30.46
14383;BME280;7275;50.328;8.720;2023-04-05T03:14:47;100419.69;;;7.03;30.40
14383;BME280;7275;50.328;8.720;2023-04-05T03:17:15;100421.41;;;7.01;30.20
14383;BME280;7275;50.328;8.720;2023-04-05T03:19:42;100424.09;;;6.98;30.21
14383;BME280;7275;50.328;8.720;2023-04-05T03:22:10;100421.50;;;6.95;30.30
14383;BME280;7275;50.328;8.720;2023-04-05T03:24:38;100424.19;;;6.90;30.27
14383;BME280;7275;50.328;8.720;2023-04-05T03:27:07;100427.72;;;6.88;30.32
14383;BME280;7275;50.328;8.720;2023-04-05T03:29:36;100419.03;;;6.81;30.72
14383;BME280;7275;50.328;8.720;2023-04-05T03:32:04;100422.53;;;6.80;30.57
14383;BME280;7275;50.328;8.720;2023-04-05T03:34:31;100418.19;;;6.79;30.49
14383;BME280;7275;50.328;8.720;2023-04-05T03:36:59;100422.56;;;6.77;30.50
14383;BME280;7275;50.328;8.720;2023-04-05T03:39:26;100419.97;;;6.74;30.35
14383;BME280;7275;50.328;8.720;2023-04-05T03:41:54;100424.38;;;6.72;30.64
14383;BME280;7275;50.328;8.720;2023-04-05T03:44:22;100417.38;;;6.71;30.34
14383;BME280;7275;50.328;8.720;2023-04-05T03:46:51;100415.69;;;6.67;30.59
14383;BME280;7275;50.328;8.720;2023-04-05T03:49:19;100413.94;;;6.65;30.43
14383;BME280;7275;50.328;8.720;2023-04-05T03:51:47;100417.47;;;6.65;30.50
14383;BME280;7275;50.328;8.720;2023-04-05T03:54:14;100410.44;;;6.64;30.69
14383;BME280;7275;50.328;8.720;2023-04-05T03:56:42;100411.31;;;6.65;30.90
14383;BME280;7275;50.328;8.720;2023-04-05T03:59:09;100409.56;;;6.64;30.83
14383;BME280;7275;50.328;8.720;2023-04-05T04:01:37;100400.84;;;6.60;30.74
14383;BME280;7275;50.328;8.720;2023-04-05T04:04:06;100403.47;;;6.60;30.66
14383;BME280;7275;50.328;8.720;2023-04-05T04:06:33;100404.38;;;6.59;30.74
14383;BME280;7275;50.328;8.720;2023-04-05T04:09:03;100407.84;;;6.60;30.61
14383;BME280;7275;50.328;8.720;2023-04-05T04:11:31;100400.00;;;6.58;30.34
14383;BME280;7275;50.328;8.720;2023-04-05T04:13:58;100404.38;;;6.58;30.93
14383;BME280;7275;50.328;8.720;2023-04-05T04:16:25;100401.81;;;6.55;30.63
14383;BME280;7275;50.328;8.720;2023-04-05T04:18:54;100399.19;;;6.52;30.67
14383;BME280;7275;50.328;8.720;2023-04-05T04:21:23;100411.47;;;6.50;30.94
14383;BME280;7275;50.328;8.720;2023-04-05T04:23:50;100405.38;;;6.46;30.74
14383;BME280;7275;50.328;8.720;2023-04-05T04:26:18;100399.28;;;6.44;30.87
14383;BME280;7275;50.328;8.720;2023-04-05T04:28:54;100400.19;;;6.40;31.22
14383;BME280;7275;50.328;8.720;2023-04-05T04:31:21;100405.47;;;6.37;30.98
14383;BME280;7275;50.328;8.720;2023-04-05T04:33:49;100404.63;;;6.33;30.97
14383;BME280;7275;50.328;8.720;2023-04-05T04:36:16;100406.41;;;6.31;30.81
14383;BME280;7275;50.328;8.720;2023-04-05T04:39:01;100408.16;;;6.28;31.26
14383;BME280;7275;50.328;8.720;2023-04-05T04:41:31;100405.53;;;6.28;31.18
14383;BME280;7275;50.328;8.720;2023-04-05T04:44:01;100402.03;;;6.26;31.18
14383;BME280;7275;50.328;8.720;2023-04-05T04:46:29;100410.81;;;6.25;31.59
14383;BME280;7275;50.328;8.720;2023-04-05T04:49:00;100414.31;;;6.24;31.44
14383;BME280;7275;50.328;8.720;2023-04-05T04:51:31;100407.34;;;6.23;31.06
14383;BME280;7275;50.328;8.720;2023-04-05T04:53:58;100402.06;;;6.24;31.40
14383;BME280;7275;50.328;8.720;2023-04-05T04:56:27;100398.56;;;6.27;31.23
14383;BME280;7275;50.328;8.720;2023-04-05T04:58:55;100402.91;;;6.29;31.42
14383;BME280;7275;50.328;8.720;2023-04-05T05:01:23;100403.75;;;6.31;31.53
14383;BME280;7275;50.328;8.720;2023-04-05T05:03:51;100394.16;;;6.32;31.49
14383;BME280;7275;50.328;8.720;2023-04-05T05:06:19;100399.34;;;6.35;31.08
14383;BME280;7275;50.328;8.720;2023-04-05T05:08:47;100394.06;;;6.36;31.31
14383;BME280;7275;50.328;8.720;2023-04-05T05:11:15;100401.06;;;6.39;31.29
14383;BME280;7275;50.328;8.720;2023-04-05T05:13:43;100404.53;;;6.41;31.72
14383;BME280;7275;50.328;8.720;2023-04-05T05:16:16;100409.78;;;6.42;31.50
14383;BME280;7275;50.328;8.720;2023-04-05T05:18:46;100405.41;;;6.44;31.63
14383;BME280;7275;50.328;8.720;2023-04-05T05:21:14;100409.75;;;6.45;31.58
14383;BME280;7275;50.328;8.720;2023-04-05T05:23:42;100407.97;;;6.47;31.38
14383;BME280;7275;50.328;8.720;2023-04-05T05:26:09;100408.84;;;6.50;31.22
14383;BME280;7275;50.328;8.720;2023-04-05T05:28:38;100411.44;;;6.53;31.68
14383;BME280;7275;50.328;8.720;2023-04-05T05:31:07;100415.78;;;6.57;31.64
14383;BME280;7275;50.328;8.720;2023-04-05T05:33:34;100412.25;;;6.61;31.50
14383;BME280;7275;50.328;8.720;2023-04-05T05:36:03;100414.81;;;6.64;31.77
14383;BME280;7275;50.328;8.720;2023-04-05T05:38:30;100410.44;;;6.67;31.56
14383;BME280;7275;50.328;8.720;2023-04-05T05:40:58;100413.88;;;6.71;31.53
14383;BME280;7275;50.328;8.720;2023-04-05T05:43:25;100419.09;;;6.75;31.94
14383;BME280;7275;50.328;8.720;2023-04-05T05:45:53;100424.28;;;6.81;31.84
14383;BME280;7275;50.328;8.720;2023-04-05T05:48:22;100418.09;;;6.87;31.83
14383;BME280;7275;50.328;8.720;2023-04-05T05:50:49;100422.41;;;6.91;31.92
14383;BME280;7275;50.328;8.720;2023-04-05T05:53:17;100418.88;;;6.96;32.01
14383;BME280;7275;50.328;8.720;2023-04-05T05:55:44;100417.91;;;7.02;32.51
14383;BME280;7275;50.328;8.720;2023-04-05T05:58:12;100421.28;;;7.11;32.39
14383;BME280;7275;50.328;8.720;2023-04-05T06:00:39;100419.44;;;7.21;32.42
14383;BME280;7275;50.328;8.720;2023-04-05T06:03:07;100421.91;;;7.33;32.36
14383;BME280;7275;50.328;8.720;2023-04-05T06:05:36;100420.91;;;7.45;32.42
14383;BME280;7275;50.328;8.720;2023-04-05T06:08:04;100419.88;;;7.55;32.41
14383;BME280;7275;50.328;8.720;2023-04-05T06:10:31;100419.75;;;7.64;32.49
14383;BME280;7275;50.328;8.720;2023-04-05T06:12:59;100424.06;;;7.69;32.58
14383;BME280;7275;50.328;8.720;2023-04-05T06:15:26;100423.06;;;7.76;32.63
14383;BME280;7275;50.328;8.720;2023-04-05T06:17:54;100415.97;;;7.83;32.85
14383;BME280;7275;50.328;8.720;2023-04-05T06:20:21;100418.44;;;7.93;32.83
14383;BME280;7275;50.328;8.720;2023-04-05T06:22:50;100411.22;;;8.06;32.96
14383;BME280;7275;50.328;8.720;2023-04-05T06:25:18;100403.06;;;8.21;32.89
14383;BME280;7275;50.328;8.720;2023-04-05T06:27:45;100414.31;;;8.34;32.89
14383;BME280;7275;50.328;8.720;2023-04-05T06:30:13;100413.22;;;8.45;33.03
14383;BME280;7275;50.328;8.720;2023-04-05T06:32:41;100418.31;;;8.56;33.02
14383;BME280;7275;50.328;8.720;2023-04-05T06:35:08;100415.47;;;8.66;33.01
14383;BME280;7275;50.328;8.720;2023-04-05T06:37:36;100417.97;;;8.75;32.95
14383;BME280;7275;50.328;8.720;2023-04-05T06:40:06;100423.03;;;8.86;33.12
14383;BME280;7275;50.328;8.720;2023-04-05T06:42:34;100412.28;;;8.97;33.01
14383;BME280;7275;50.328;8.720;2023-04-05T06:45:02;100412.91;;;9.08;33.13
14383;BME280;7275;50.328;8.720;2023-04-05T06:47:32;100417.97;;;9.20;33.00
14383;BME280;7275;50.328;8.720;2023-04-05T06:50:00;100415.97;;;9.31;32.98
14383;BME280;7275;50.328;8.720;2023-04-05T06:52:27;100413.94;;;9.43;32.96
14383;BME280;7275;50.328;8.720;2023-04-05T06:54:55;100407.53;;;9.55;32.91
14383;BME280;7275;50.328;8.720;2023-04-05T06:57:24;100401.13;;;9.66;32.79
14383;BME280;7275;50.328;8.720;2023-04-05T06:59:52;100400.81;;;9.80;32.58
14383;BME280;7275;50.328;8.720;2023-04-05T07:02:20;100399.69;;;9.90;32.33
14383;BME280;7275;50.328;8.720;2023-04-05T07:04:48;100402.09;;;10.01;32.67
14383;BME280;7275;50.328;8.720;2023-04-05T07:07:16;100395.69;;;10.11;32.39
14383;BME280;7275;50.328;8.720;2023-04-05T07:09:44;100395.44;;;10.21;32.28
14383;BME280;7275;50.328;8.720;2023-04-05T07:12:11;100396.91;;;10.33;32.45
14383;BME280;7275;50.328;8.720;2023-04-05T07:14:40;100394.81;;;10.45;32.37
14383;BME280;7275;50.328;8.720;2023-04-05T07:17:07;100397.13;;;10.59;31.84
14383;BME280;7275;50.328;8.720;2023-04-05T07:19:35;100394.09;;;10.73;32.16
14383;BME280;7275;50.328;8.720;2023-04-05T07:22:02;100399.09;;;10.83;32.13
14383;BME280;7275;50.328;8.720;2023-04-05T07:24:30;100385.56;;;10.94;31.63
14383;BME280;7275;50.328;8.720;2023-04-05T07:26:57;100391.50;;;11.02;31.96
14383;BME280;7275;50.328;8.720;2023-04-05T07:29:25;100386.03;;;11.09;31.87
14383;BME280;7275;50.328;8.720;2023-04-05T07:31:53;100383.06;;;11.20;31.56
14383;BME280;7275;50.328;8.720;2023-04-05T07:34:21;100385.38;;;11.32;31.65
14383;BME280;7275;50.328;8.720;2023-04-05T07:36:48;100387.69;;;11.43;32.02
14383;BME280;7275;50.328;8.720;2023-04-05T07:39:16;100389.16;;;11.53;31.28
14383;BME280;7275;50.328;8.720;2023-04-05T07:41:46;100392.38;;;11.62;31.54
14383;BME280;7275;50.328;8.720;2023-04-05T07:44:13;100387.72;;;11.70;31.23
14383;BME280;7275;50.328;8.720;2023-04-05T07:46:41;100386.59;;;11.79;31.26
14383;BME280;7275;50.328;8.720;2023-04-05T07:49:15;100381.81;;;11.90;30.91
14383;BME280;7275;50.328;8.720;2023-04-05T07:51:42;100386.84;;;11.99;30.78
14383;BME280;7275;50.328;8.720;2023-04-05T07:54:11;100379.56;;;12.06;30.83
14383;BME280;7275;50.328;8.720;2023-04-05T07:56:39;100385.44;;;12.15;30.58
14383;BME280;7275;50.328;8.720;2023-04-05T07:59:07;100386.03;;;12.23;30.53
14383;BME280;7275;50.328;8.720;2023-04-05T08:01:34;100382.22;;;12.32;30.50
14383;BME280;7275;50.328;8.720;2023-04-05T08:04:02;100382.72;;;12.43;30.33
14383;BME280;7275;50.328;8.720;2023-04-05T08:06:31;100384.22;;;12.51;30.36
14383;BME280;7275;50.328;8.720;2023-04-05T08:08:58;100390.00;;;12.62;30.16
14383;BME280;7275;50.328;8.720;2023-04-05T08:11:26;100380.75;;;12.74;30.16
14383;BME280;7275;50.328;8.720;2023-04-05T08:13:53;100381.28;;;12.83;30.27
14383;BME280;7275;50.328;8.720;2023-04-05T08:16:21;100380.00;;;12.95;29.93
14383;BME280;7275;50.328;8.720;2023-04-05T08:18:48;100372.41;;;13.09;29.65
14383;BME280;7275;50.328;8.720;2023-04-05T08:21:16;100372.94;;;13.19;29.59
14383;BME280;7275;50.328;8.720;2023-04-05T08:23:45;100374.28;;;13.30;29.45
14383;BME280;7275;50.328;8.720;2023-04-05T08:26:12;100365.22;;;13.36;29.41
14383;BME280;7275;50.328;8.720;2023-04-05T08:28:40;100367.56;;;13.43;29.21
14383;BME280;7275;50.328;8.720;2023-04-05T08:31:07;100364.63;;;13.51;29.07
14383;BME280;7275;50.328;8.720;2023-04-05T08:33:37;100360.63;;;13.62;29.07
14383;BME280;7275;50.328;8.720;2023-04-05T08:36:06;100364.63;;;13.73;28.95
14383;BME280;7275;50.328;8.720;2023-04-05T08:38:34;100353.66;;;13.82;28.92
14383;BME280;7275;50.328;8.720;2023-04-05T08:41:13;100360.69;;;14.04;28.89
14383;BME280;7275;50.328;8.720;2023-04-05T08:43:54;100352.97;;;14.62;28.42
14383;BME280;7275;50.328;8.720;2023-04-05T08:46:23;100345.47;;;15.49;27.57
14383;BME280;7275;50.328;8.720;2023-04-05T08:48:51;100339.66;;;16.48;26.75
14383;BME280;7275;50.328;8.720;2023-04-05T08:51:19;100335.63;;;17.56;26.30
14383;BME280;7275;50.328;8.720;2023-04-05T08:53:47;100334.50;;;18.52;25.63
14383;BME280;7275;50.328;8.720;2023-04-05T08:56:19;100329.25;;;19.37;25.23
14383;BME280;7275;50.328;8.720;2023-04-05T08:58:51;100323.38;;;20.26;24.81
14383;BME280;7275;50.328;8.720;2023-04-05T09:01:19;100322.03;;;21.22;24.53
14383;BME280;7275;50.328;8.720;2023-04-05T09:03:48;100323.72;;;22.21;24.09
14383;BME280;7275;50.328;8.720;2023-04-05T09:06:18;100322.41;;;23.18;23.54
14383;BME280;7275;50.328;8.720;2023-04-05T09:08:47;100314.34;;;23.73;22.84
14383;BME280;7275;50.328;8.720;2023-04-05T09:11:16;100313.75;;;24.24;22.50
14383;BME280;7275;50.328;8.720;2023-04-05T09:13:44;100311.97;;;24.86;22.21
14383;BME280;7275;50.328;8.720;2023-04-05T09:16:13;100306.00;;;25.43;21.74
14383;BME280;7275;50.328;8.720;2023-04-05T09:18:41;100305.03;;;25.84;21.43
14383;BME280;7275;50.328;8.720;2023-04-05T09:21:09;100306.81;;;26.13;21.11
14383;BME280;7275;50.328;8.720;2023-04-05T09:23:50;100302.69;;;26.48;20.96
14383;BME280;7275;50.328;8.720;2023-04-05T09:26:20;100308.66;;;26.89;20.58
14383;BME280;7275;50.328;8.720;2023-04-05T09:28:48;100295.81;;;27.38;20.23
14383;BME280;7275;50.328;8.720;2023-04-05T09:31:29;100295.66;;;27.94;19.85
14383;BME280;7275;50.328;8.720;2023-04-05T09:33:57;100295.50;;;28.22;19.28
14383;BME280;7275;50.328;8.720;2023-04-05T09:36:26;100287.53;;;28.29;19.31
14383;BME280;7275;50.328;8.720;2023-04-05T09:39:04;100296.50;;;28.39;19.18
14383;BME280;7275;50.328;8.720;2023-04-05T09:41:34;100294.38;;;28.51;18.45
14383;BME280;7275;50.328;8.720;2023-04-05T09:44:01;100294.03;;;28.63;18.29
14383;BME280;7275;50.328;8.720;2023-04-05T09:46:30;100282.47;;;28.87;18.51
14383;BME280;7275;50.328;8.720;2023-04-05T09:49:00;100288.88;;;29.03;17.74
14383;BME280;7275;50.328;8.720;2023-04-05T09:51:33;100289.44;;;28.89;17.56
14383;BME280;7275;50.328;8.720;2023-04-05T09:54:02;100284.75;;;28.74;17.67
14383;BME280;7275;50.328;8.720;2023-04-05T09:56:31;100282.91;;;28.57;17.83
14383;BME280;7275;50.328;8.720;2023-04-05T09:59:01;100281.47;;;28.53;17.29
14383;BME280;7275;50.328;8.720;2023-04-05T10:01:30;100284.75;;;28.56;17.22
14383;BME280;7275;50.328;8.720;2023-04-05T10:03:58;100279.97;;;28.93;17.52
14383;BME280;7275;50.328;8.720;2023-04-05T10:06:34;100286.38;;;29.44;17.38
14383;BME280;7275;50.328;8.720;2023-04-05T10:09:03;100285.13;;;29.64;17.02
14383;BME280;7275;50.328;8.720;2023-04-05T10:11:31;100276.38;;;29.86;16.70
14383;BME280;7275;50.328;8.720;2023-04-05T10:14:02;100278.44;;;30.00;16.13
14383;BME280;7275;50.328;8.720;2023-04-05T10:16:32;100282.06;;;30.17;16.40
14383;BME280;7275;50.328;8.720;2023-04-05T10:19:00;100277.00;;;30.30;16.02
14383;BME280;7275;50.328;8.720;2023-04-05T10:21:34;100281.94;;;30.42;16.24
14383;BME280;7275;50.328;8.720;2023-04-05T10:24:10;100273.44;;;30.53;16.04
14383;BME280;7275;50.328;8.720;2023-04-05T10:26:46;100273.25;;;30.71;15.84
14383;BME280;7275;50.328;8.720;2023-04-05T10:29:20;100261.28;;;30.96;15.80
14383;BME280;7275;50.328;8.720;2023-04-05T10:31:54;100260.03;;;31.15;15.40
14383;BME280;7275;50.328;8.720;2023-04-05T10:34:30;100256.56;;;31.45;15.50
14383;BME280;7275;50.328;8.720;2023-04-05T10:37:00;100245.44;;;31.85;14.61
14383;BME280;7275;50.328;8.720;2023-04-05T10:39:33;100251.16;;;32.06;14.63
14383;BME280;7275;50.328;8.720;2023-04-05T10:42:06;100249.16;;;32.23;14.66
14383;BME280;7275;50.328;8.720;2023-04-05T10:44:39;100246.09;;;32.63;14.73
14383;BME280;7275;50.328;8.720;2023-04-05T10:47:13;100246.88;;;32.86;14.45
14383;BME280;7275;50.328;8.720;2023-04-05T10:49:42;100241.56;;;32.70;14.20
14383;BME280;7275;50.328;8.720;2023-04-05T10:52:09;100249.31;;;32.67;14.05
14383;BME280;7275;50.328;8.720;2023-04-05T10:54:37;100250.81;;;32.69;14.15
14383;BME280;7275;50.328;8.720;2023-04-05T10:57:06;100241.28;;;32.65;13.90
14383;BME280;7275;50.328;8.720;2023-04-05T10:59:41;100233.66;;;32.90;13.80
14383;BME280;7275;50.328;8.720;2023-04-05T11:02:10;100230.41;;;33.09;13.85
14383;BME280;7275;50.328;8.720;2023-04-05T11:04:39;100230.41;;;33.09;13.46
14383;BME280;7275;50.328;8.720;2023-04-05T11:07:12;100232.69;;;33.05;13.47
14383;BME280;7275;50.328;8.720;2023-04-05T11:09:50;100234.44;;;32.98;13.56
14383;BME280;7275;50.328;8.720;2023-04-05T11:12:18;100228.81;;;33.00;13.46
14383;BME280;7275;50.328;8.720;2023-04-05T11:14:47;100225.00;;;33.16;13.68
14383;BME280;7275;50.328;8.720;2023-04-05T11:17:24;100221.22;;;33.46;13.63
14383;BME280;7275;50.328;8.720;2023-04-05T11:20:01;100221.78;;;33.70;13.33
14383;BME280;7275;50.328;8.720;2023-04-05T11:22:29;100225.88;;;33.96;13.27
14383;BME280;7275;50.328;8.720;2023-04-05T11:24:58;100217.31;;;34.05;12.91
14383;BME280;7275;50.328;8.720;2023-04-05T11:27:29;100220.81;;;34.14;13.03
14383;BME280;7275;50.328;8.720;2023-04-05T11:29:59;100223.56;;;33.99;12.59
14383;BME280;7275;50.328;8.720;2023-04-05T11:32:38;100210.84;;;33.92;13.13
14383;BME280;7275;50.328;8.720;2023-04-05T11:35:11;100210.53;;;34.22;12.85
14383;BME280;7275;50.328;8.720;2023-04-05T11:38:06;100205.13;;;34.50;13.01
14383;BME280;7275;50.328;8.720;2023-04-05T11:40:35;100201.47;;;34.71;12.27
14383;BME280;7275;50.328;8.720;2023-04-05T11:43:07;100200.19;;;34.94;12.54
14383;BME280;7275;50.328;8.720;2023-04-05T11:45:38;100195.59;;;35.01;12.09
14383;BME280;7275;50.328;8.720;2023-04-05T11:48:08;100196.91;;;35.12;12.41
14383;BME280;7275;50.328;8.720;2023-04-05T11:50:37;100195.88;;;35.19;11.89
14383;BME280;7275;50.328;8.720;2023-04-05T11:53:08;100188.66;;;35.12;12.11
14383;BME280;7275;50.328;8.720;2023-04-05T11:55:36;100187.84;;;35.18;12.14
14383;BME280;7275;50.328;8.720;2023-04-05T11:58:14;100180.84;;;35.50;11.89
14383;BME280;7275;50.328;8.720;2023-04-05T12:00:44;100183.03;;;35.80;11.74
14383;BME280;7275;50.328;8.720;2023-04-05T12:03:12;100183.13;;;36.00;11.73
14383;BME280;7275;50.328;8.720;2023-04-05T12:05:47;100171.91;;;36.15;11.11
14383;BME280;7275;50.328;8.720;2023-04-05T12:08:15;100170.88;;;36.35;11.02
14383;BME280;7275;50.328;8.720;2023-04-05T12:10:43;100167.06;;;36.69;10.91
14383;BME280;7275;50.328;8.720;2023-04-05T12:13:11;100170.44;;;36.84;10.46
14383;BME280;7275;50.328;8.720;2023-04-05T12:15:39;100173.22;;;36.51;10.34
14383;BME280;7275;50.328;8.720;2023-04-05T12:18:14;100167.00;;;35.97;10.44
14383;BME280;7275;50.328;8.720;2023-04-05T12:20:42;100166.50;;;35.67;10.73
14383;BME280;7275;50.328;8.720;2023-04-05T12:23:10;100159.31;;;35.66;10.79
14383;BME280;7275;50.328;8.720;2023-04-05T12:25:38;100159.75;;;35.83;10.95
14383;BME280;7275;50.328;8.720;2023-04-05T12:28:08;100155.19;;;36.16;11.09
14383;BME280;7275;50.328;8.720;2023-04-05T12:30:47;100144.63;;;36.52;10.49
14383;BME280;7275;50.328;8.720;2023-04-05T12:33:25;100144.63;;;36.52;10.19
14383;BME280;7275;50.328;8.720;2023-04-05T12:35:52;100150.94;;;36.59;10.10
14383;BME280;7275;50.328;8.720;2023-04-05T12:38:20;100140.53;;;36.74;10.74
14383;BME280;7275;50.328;8.720;2023-04-05T12:40:47;100143.72;;;36.91;10.31
14383;BME280;7275;50.328;8.720;2023-04-05T12:43:18;100137.50;;;37.15;10.45
14383;BME280;7275;50.328;8.720;2023-04-05T12:45:46;100139.78;;;37.25;10.24
14383;BME280;7275;50.328;8.720;2023-04-05T12:48:21;100134.75;;;37.09;10.27
14383;BME280;7275;50.328;8.720;2023-04-05T12:50:51;100135.66;;;36.90;10.25
14383;BME280;7275;50.328;8.720;2023-04-05T12:53:21;100134.16;;;36.94;10.42
14383;BME280;7275;50.328;8.720;2023-04-05T12:55:50;100133.75;;;36.83;10.33
14383;BME280;7275;50.328;8.720;2023-04-05T12:58:19;100132.72;;;36.71;9.83
14383;BME280;7275;50.328;8.720;2023-04-05T13:00:47;100130.63;;;36.60;10.00
14383;BME280;7275;50.328;8.720;2023-04-05T13:03:15;100114.28;;;36.65;10.07
14383;BME280;7275;50.328;8.720;2023-04-05T13:05:45;100110.69;;;36.58;9.68
14383;BME280;7275;50.328;8.720;2023-04-05T13:08:14;100112.59;;;36.32;9.95
14383;BME280;7275;50.328;8.720;2023-04-05T13:10:44;100110.06;;;36.10;9.83
14383;BME280;7275;50.328;8.720;2023-04-05T13:13:12;100102.63;;;36.18;10.36
14383;BME280;7275;50.328;8.720;2023-04-05T13:15:40;100101.16;;;36.61;9.67
14383;BME280;7275;50.328;8.720;2023-04-05T13:18:08;100103.34;;;37.10;9.76